Terminal Aerodrome Forecast
Issued by NWS

Current Version | Previous Version | Text Only | Print | Product List | Glossary Off
Versions: 1 2 3 4 5 6 7 8 9 10 11 12 13 14 15 16 17 18 19 20 21 22 23

000
FTUS41 KRLX 271458 AAA
TAFCKB
TAF AMD
KCKB 271458Z 2715/2812 17003KT P6SM FEW006 OVC035
     FM271600 16008KT 3SM SHRA BR VCTS BKN035CB
     FM271800 20010G15KT 6SM SHRA BR VCTS BKN060CB
     FM272200 21008KT P6SM -SHRA VCTS BKN025CB
     FM280100 23008KT P6SM BKN040
     FM280700 23009KT P6SM BKN015=

USA.gov is the U.S. government's official web portal to all federal, state and local government web resources and services.